Observations for LIVERPOOL AIRPORT, United Kingdom (EGGP)

EGGP 230520Z 16004KT CAVOK 10/08 Q1016  
EGGP 230450Z 19004KT CAVOK 10/08 Q1016  
EGGP 230420Z 20004KT CAVOK 09/08 Q1016  
EGGP 230350Z 19003KT CAVOK 09/08 Q1016  
EGGP 230320Z 13002KT CAVOK 09/08 Q1016  
EGGP 230250Z VRB03KT CAVOK 10/09 Q1016  
EGGP 230220Z 15003KT CAVOK 10/08 Q1017  
EGGP 230150Z VRB01KT CAVOK 10/08 Q1017  
EGGP 230120Z 00000KT CAVOK 10/07 Q1017  
EGGP 230050Z VRB02KT CAVOK 11/08 Q1017  
EGGP 230020Z 30003KT CAVOK 11/09 Q1017  
EGGP 222350Z 29004KT CAVOK 11/08 Q1017  
EGGP 222320Z 30004KT CAVOK 11/08 Q1017  
EGGP 222250Z 28005KT CAVOK 11/08 Q1017  
EGGP 222220Z 31004KT CAVOK 12/08 Q1018  
EGGP 222150Z 32004KT CAVOK 12/08 Q1018  
EGGP 222120Z 30006KT CAVOK 12/09 Q1018  
EGGP 222050Z 30006KT CAVOK 12/08 Q1018  
EGGP 222020Z 29006KT CAVOK 12/08 Q1018  
EGGP 221950Z 30007KT CAVOK 13/09 Q1018  
EGGP 221920Z 29009KT CAVOK 13/08 Q1018  
EGGP 221850Z 31010KT CAVOK 14/08 Q1018  
EGGP 221820Z 31010KT 280V350 CAVOK 14/08 Q1018  
EGGP 221750Z 31009KT 280V340 CAVOK 15/10 Q1018  
EGGP 221720Z 32010KT 290V350 CAVOK 15/09 Q1018  
EGGP 221650Z 31010KT 9999 FEW040 15/09 Q1018
EGGP 221620Z 32012KT 9999 FEW047 15/09 Q1018
EGGP 221550Z 30010KT 280V340 9999 FEW047 15/09 Q1018
EGGP 221520Z 29011KT 9999 FEW046 15/09 Q1018
EGGP 221450Z 30011KT 9999 FEW035 16/09 Q1018
EGGP 221420Z 30011KT 9999 SCT048 16/10 Q1018
EGGP 221350Z 30009KT 9999 FEW040 16/10 Q1018
EGGP 221320Z 30008KT 260V330 9999 SCT040 16/09 Q1018
EGGP 221250Z 30008KT 240V330 9999 SCT042 16/09 Q1018
EGGP 221220Z 30007KT 250V340 9999 SCT035 BKN040 17/10 Q1018 
EGGP 221150Z 29008KT 270V340 9999 SCT035 16/09 Q1018
EGGP 221120Z 28008KT 9999 SCT032 BKN039 15/09 Q1019 
EGGP 221050Z 23005KT 9999 SCT032 15/09 Q1019
EGGP 221020Z VRB02KT 9999 SCT034 BKN038 16/09 Q1019 
EGGP 220950Z VRB03KT 9999 SCT048 15/08 Q1019
EGGP 220920Z 20004KT 140V240 CAVOK 14/07 Q1019  
EGGP 220850Z 18004KT 130V220 9999 BKN048 13/07 Q1019
EGGP 220820Z 19006KT 9999 BKN048 13/07 Q1019
EGGP 220750Z 18006KT 130V210 CAVOK 12/07 Q1019  
EGGP 220720Z 17007KT CAVOK 12/06 Q1019  
EGGP 220650Z 19006KT CAVOK 12/06 Q1019  
EGGP 220620Z 17008KT 9999 FEW048 10/06 Q1019
EGGP 220550Z 15004KT CAVOK 11/07 Q1019  
EGGP 220520Z 11003KT CAVOK 10/06 Q1019  
EGGP 220450Z VRB01KT CAVOK 10/06 Q1019